Latest Weather Observations for Khancoban

IDN60801

Issued at 11:05 pm EDT Thursday 30 October 2014 (issued every 30 minutes, with the page automatically refreshed every 10 minutes)

About weather observations | Map of weather stations | Latest weather observations for NSW | Other Formats
Station Details ID: 072162 Name: KHANCOBAN AWS Lat: -36.23 Lon: 148.14 Height: 339.3 m
Data from the previous 72 hours. | See also: Recent months at Khancoban
Date/Time
EDT
Temp
°C
App
Temp
°C
Dew
Point
Rel
Hum
%
Delta-T
°C
Wind Press
QNH
hPa
Press
MSL
hPa
Rain
since 9 am
mm
Dir
 
Spd
km/h
Gust
km/h
Spd
kts
Gust
kts
30/11:00pm 11.3 11.5 10.4 94 0.5 ESE 0 6 0 3 1014.0 1013.7 0.0
30/10:30pm 12.3 12.5 10.5 89 0.9 ESE 0 0 0 0 1014.0 1013.7 0.0
30/10:00pm 12.2 12.2 9.9 86 1.2 CALM 0 0 0 0 1014.0 1013.7 0.0
30/09:30pm 13.3 13.4 10.3 82 1.6 CALM 0 0 0 0 1013.9 1013.6 0.0
30/09:00pm 15.3 15.6 10.9 75 2.4 CALM 0 6 0 3 1013.6 1013.3 0.0
30/08:30pm 15.1 15.2 10.3 73 2.6 CALM 0 0 0 0 1013.3 1013.0 0.0
30/08:00pm 17.6 17.8 10.7 64 3.8 CALM 0 7 0 4 1013.0 1012.7 0.0
30/07:30pm 19.3 19.3 11.3 60 4.5 NW 2 9 1 5 1012.5 1012.2 0.0
30/07:00pm 21.8 21.6 10.6 49 6.2 SW 2 9 1 5 1012.2 1011.9 0.0
30/06:30pm 25.7 25.5 9.1 35 9.2 CALM 0 4 0 2 1012.1 1011.7 0.0
30/06:00pm 26.7 25.3 7.2 29 10.5 NW 4 9 2 5 1012.1 1011.7 0.0
30/05:30pm 26.1 23.9 6.2 28 10.5 NW 7 9 4 5 1012.2 1011.9 0.0
30/05:00pm 26.1 23.4 5.7 27 10.7 W 9 15 5 8 1012.3 1012.0 0.0
30/04:30pm 26.0 22.9 5.6 27 10.6 NW 11 17 6 9 1012.6 1012.3 0.0
30/04:00pm 25.5 22.2 6.2 29 10.1 NW 13 17 7 9 1012.9 1012.6 0.0
30/03:30pm 26.0 23.7 8.9 34 9.4 WNW 11 17 6 9 1013.1 1012.8 0.0
30/03:00pm 25.2 23.9 9.1 36 8.9 N 6 17 3 9 1013.4 1013.1 0.0
30/02:30pm 24.7 22.0 9.0 37 8.6 NNW 13 24 7 13 1013.8 1013.5 0.0
30/02:00pm 24.1 21.8 7.3 34 8.9 NW 9 17 5 9 1014.2 1013.9 0.0
30/01:30pm 24.1 21.7 8.5 37 8.5 NW 11 24 6 13 1014.2 1013.9 0.0
30/01:00pm 22.7 19.4 6.5 35 8.4 NW 13 26 7 14 1014.7 1014.5 0.0
30/12:30pm 22.7 20.4 7.3 37 8.1 W 9 24 5 13 1015.2 1014.9 0.0
30/12:00pm 22.3 20.1 9.5 44 7.0 WNW 11 15 6 8 1015.4 1015.1 0.0
30/11:30am 21.0 20.1 11.3 54 5.4 SW 7 13 4 7 1016.3 1016.0 0.0
30/11:00am 19.2 18.3 9.1 52 5.4 NW 4 9 2 5 1016.4 1016.1 0.0
30/10:30am 17.9 16.9 10.3 61 4.1 W 6 7 3 4 1016.7 1016.4 0.0
30/10:00am 16.3 15.8 9.5 64 3.6 W 2 9 1 5 1016.7 1016.4 0.0
30/09:30am 14.6 13.7 9.4 71 2.7 W 4 7 2 4 1016.6 1016.3 0.0
30/09:00am 12.9 13.0 10.1 83 1.5 CALM 0 7 0 4 1016.9 1016.6 0.0
30/08:30am 11.1 11.1 11.1 100 0.0 NNE 2 6 1 3 1016.9 1016.6 0.0
30/08:00am 9.5 9.4 9.5 100 0.0 CALM 0 0 0 0 1017.0 1016.7 0.0
30/07:30am 7.0 6.3 7.0 100 0.0 CALM 0 6 0 3 1016.8 1016.5 0.0
30/07:00am 6.8 6.1 6.8 100 0.0 CALM 0 0 0 0 1016.4 1016.1 0.0
30/06:30am 6.9 5.8 6.9 100 0.0 NE 2 6 1 3 1016.2 1015.9 0.0
30/06:00am 6.7 5.6 6.7 100 0.0 NE 2 7 1 4 1016.2 1015.9 0.0
30/05:30am 7.3 6.7 7.3 100 0.0 CALM 0 0 0 0 1016.0 1015.7 0.0
30/05:00am 7.0 6.3 7.0 100 0.0 CALM 0 6 0 3 1016.0 1015.7 0.0
30/04:30am 7.1 6.4 7.1 100 0.0 CALM 0 0 0 0 1015.8 1015.5 0.0
30/04:00am 6.9 6.2 6.9 100 0.0 CALM 0 0 0 0 1015.9 1015.6 0.0
30/03:30am 7.3 6.7 7.3 100 0.0 CALM 0 6 0 3 1016.1 1015.8 0.0
30/03:00am 7.3 6.7 7.3 100 0.0 CALM 0 0 0 0 1016.1 1015.8 0.0
30/02:30am 7.5 6.9 7.5 100 0.0 CALM 0 0 0 0 1016.1 1015.8 0.0
30/02:00am 8.0 6.8 8.0 100 0.0 NE 4 7 2 4 1016.1 1015.8 0.0
30/01:30am 7.8 7.3 7.8 100 0.0 CALM 0 6 0 3 1016.1 1015.8 0.0
30/01:00am 8.4 8.0 8.4 100 0.0 CALM 0 0 0 0 1016.3 1016.0 0.0
30/12:30am 9.1 8.1 9.0 99 0.0 SSE 4 9 2 5 1016.7 1016.4 0.0
30/12:00am 9.1 8.9 9.0 99 0.0 ESE 0 0 0 0 1016.7 1016.4 0.0
 
Date/Time
EDT
Temp
°C
App
Temp
°C
Dew
Point
Rel
Hum
%
Delta-T
°C
Wind Press
QNH
hPa
Press
MSL
hPa
Rain
since 9 am
mm
Dir
 
Spd
km/h
Gust
km/h
Spd
kts
Gust
kts
29/11:30pm 10.0 10.0 9.9 99 0.1 CALM 0 6 0 3 1016.8 1016.5 0.0
29/11:00pm 10.4 10.3 9.5 94 0.5 CALM 0 0 0 0 1016.6 1016.3 0.0
29/10:30pm 10.8 10.6 9.1 89 0.9 CALM 0 0 0 0 1016.6 1016.3 0.0
29/10:00pm 10.7 9.2 8.6 87 1.1 S 6 9 3 5 1016.6 1016.3 0.0
29/09:30pm 12.7 11.4 9.2 79 1.8 SSE 6 9 3 5 1016.6 1016.3 0.0
29/09:00pm 13.3 13.1 9.0 75 2.2 CALM 0 0 0 0 1016.3 1016.0 0.0
29/08:30pm 13.9 12.9 8.7 71 2.7 ESE 4 7 2 4 1016.0 1015.7 0.0
29/08:00pm 16.2 14.5 7.7 57 4.3 NE 6 7 3 4 1015.7 1015.4 0.0
29/07:30pm 18.0 15.7 7.4 50 5.4 NNW 9 13 5 7 1015.2 1014.9 0.0
29/07:00pm 20.3 17.6 7.3 43 6.8 NW 11 15 6 8 1014.7 1014.5 0.0
29/06:30pm 21.4 19.1 7.6 41 7.3 NNW 9 13 5 7 1014.5 1014.2 0.0
29/06:00pm 22.5 19.8 7.5 38 7.9 NW 11 17 6 9 1014.4 1014.1 0.0
29/05:30pm 23.2 20.7 8.1 38 8.1 NNW 11 19 6 10 1014.4 1014.1 0.0
29/05:00pm 23.3 21.5 7.8 37 8.3 WNW 7 15 4 8 1014.5 1014.2 0.0
29/04:30pm 23.3 20.9 7.0 35 8.6 WNW 9 17 5 9 1014.7 1014.5 0.0
29/04:00pm 22.8 20.7 6.6 35 8.4 WNW 7 15 4 8 1014.8 1014.6 0.0
29/03:30pm 23.1 21.0 6.8 35 8.5 WSW 7 15 4 8 1015.2 1014.9 0.0
29/03:00pm 22.4 19.7 7.4 38 7.9 NW 11 17 6 9 1015.6 1015.3 0.0
29/02:30pm 22.3 19.5 5.3 33 8.6 W 9 17 5 9 1015.8 1015.5 0.0
29/02:00pm 21.6 19.4 7.8 41 7.3 WNW 9 15 5 8 1016.3 1016.0 0.0
29/01:30pm 21.3 18.5 6.8 39 7.5 WNW 11 20 6 11 1016.8 1016.5 0.0
29/01:00pm 20.4 16.8 5.2 37 7.6 WNW 13 19 7 10 1017.1 1016.8 0.0
29/12:30pm 20.2 16.9 7.9 45 6.5 NW 15 22 8 12 1017.4 1017.2 0.0
29/12:00pm 19.0 16.8 9.2 53 5.2 W 11 19 6 10 1017.7 1017.5 0.0
29/11:30am 18.0 16.1 9.1 56 4.7 W 9 17 5 9 1017.9 1017.7 0.0
29/11:00am 17.1 14.5 7.7 54 4.8 W 11 17 6 9 1018.4 1018.1 0.0
29/10:30am 16.7 14.3 8.7 59 4.2 WNW 11 17 6 9 1018.7 1018.4 0.0
29/10:00am 15.5 14.0 9.0 65 3.4 W 7 13 4 7 1018.8 1018.5 0.0
29/09:30am 14.2 14.0 9.0 71 2.7 CALM 0 4 0 2 1018.7 1018.4 0.0
29/09:00am 12.4 11.8 10.5 88 1.0 WNW 4 7 2 4 1018.7 1018.4 0.0
29/08:30am 11.1 11.1 9.7 91 0.7 CALM 0 0 0 0 1018.6 1018.3 0.0
29/08:00am 9.5 9.4 9.5 100 0.0 CALM 0 0 0 0 1018.5 1018.2 0.0
29/07:30am 7.6 6.3 7.6 100 0.0 NNE 4 6 2 3 1018.0 1017.8 0.0
29/07:00am 6.1 5.2 6.1 100 0.0 CALM 0 0 0 0 1017.8 1017.6 0.0
29/06:30am 5.4 4.4 5.4 100 0.0 CALM 0 0 0 0 1017.4 1017.2 0.0
29/06:00am 5.4 4.4 5.4 100 0.0 CALM 0 0 0 0 1017.0 1016.7 0.0
29/05:30am 5.8 4.8 5.8 100 0.0 CALM 0 0 0 0 1016.7 1016.4 0.0
29/05:00am 6.2 5.3 6.2 100 0.0 CALM 0 0 0 0 1016.3 1016.0 0.0
29/04:30am 6.3 5.5 6.3 100 0.0 CALM 0 0 0 0 1016.1 1015.8 0.0
29/04:00am 6.3 5.5 6.3 100 0.0 CALM 0 0 0 0 1015.9 1015.6 0.0
29/03:30am 6.6 5.8 6.6 100 0.0 CALM 0 0 0 0 1015.8 1015.5 0.0
29/03:00am 6.8 6.1 6.8 100 0.0 CALM 0 0 0 0 1015.8 1015.5 0.0
29/02:30am 7.5 6.9 7.5 100 0.0 CALM 0 0 0 0 1015.6 1015.3 0.0
29/02:00am 7.4 6.0 7.4 100 0.0 SE 4 7 2 4 1015.6 1015.3 0.0
29/01:30am 7.6 5.9 7.6 100 0.0 SSW 6 7 3 4 1015.8 1015.5 0.0
29/01:00am 7.6 7.0 7.6 100 0.0 CALM 0 6 0 3 1015.8 1015.5 0.0
29/12:30am 8.2 6.6 8.2 100 0.0 E 6 9 3 5 1015.6 1015.3 0.0
29/12:00am 9.2 9.0 9.2 100 0.0 CALM 0 0 0 0 1015.6 1015.3 0.0
 
Date/Time
EDT
Temp
°C
App
Temp
°C
Dew
Point
Rel
Hum
%
Delta-T
°C
Wind Press
QNH
hPa
Press
MSL
hPa
Rain
since 9 am
mm
Dir
 
Spd
km/h
Gust
km/h
Spd
kts
Gust
kts
28/11:30pm 9.4 8.1 9.3 99 0.1 SSE 6 7 3 4 1015.7 1015.4 0.0
28/11:00pm 11.1 11.0 10.9 99 0.1 NNE 2 6 1 3 1015.6 1015.3 0.0
28/10:30pm 11.7 11.0 11.5 99 0.1 SE 6 7 3 4 1015.5 1015.2 0.0
28/10:00pm 11.6 11.5 10.8 95 0.4 N 2 6 1 3 1015.4 1015.1 0.0
28/09:30pm 12.1 11.1 10.3 89 0.9 SSE 6 7 3 4 1015.5 1015.2 0.0
28/09:00pm 12.8 12.9 10.0 83 1.5 CALM 0 0 0 0 1015.2 1014.9 0.0
28/08:30pm 13.5 13.5 9.9 79 1.9 CALM 0 0 0 0 1014.9 1014.7 0.0
28/08:00pm 13.6 13.1 9.5 76 2.1 ESE 2 7 1 4 1014.8 1014.6 0.0
28/07:30pm 14.4 13.6 8.1 66 3.2 NW 2 6 1 3 1014.6 1014.4 0.0
28/07:00pm 14.9 13.0 7.5 61 3.7 NE 7 13 4 7 1014.2 1013.9 0.0
28/06:30pm 15.4 13.6 7.9 61 3.8 NE 7 9 4 5 1014.1 1013.8 0.0
28/06:00pm 15.5 13.9 8.0 61 3.8 NNE 6 9 3 5 1014.1 1013.8 0.0
28/05:30pm 15.6 13.8 7.9 60 3.9 N 7 13 4 7 1014.3 1014.0 0.0
28/05:00pm 15.8 13.4 7.0 56 4.4 NW 9 13 5 7 1014.1 1013.8 0.0
28/04:30pm 15.8 12.9 6.5 54 4.6 W 11 17 6 9 1014.2 1013.9 0.0
28/04:00pm 15.8 13.0 6.8 55 4.5 WNW 11 19 6 10 1014.1 1013.8 0.0
28/03:30pm 15.7 12.5 7.0 56 4.4 WNW 13 20 7 11 1014.2 1013.9 0.0
28/03:00pm 16.6 12.9 6.4 51 5.1 NW 15 20 8 11 1014.3 1014.0 0.0
28/02:30pm 16.2 12.5 6.3 52 4.9 NW 15 20 8 11 1014.3 1014.0 0.0
28/02:00pm 16.6 12.4 5.6 48 5.4 WNW 17 30 9 16 1014.3 1014.0 0.0
28/01:30pm 15.7 10.7 6.4 54 4.6 N 22 32 12 17 1013.9 1013.6 0.0
28/01:00pm 16.4 12.3 7.9 57 4.4 NW 19 28 10 15 1013.9 1013.6 0.0
28/12:30pm 15.1 10.4 5.0 51 4.8 NNW 19 28 10 15 1013.8 1013.5 0.0
28/12:00pm 15.5 11.3 5.7 52 4.8 WNW 17 26 9 14 1014.1 1013.8 0.0
28/11:30am 15.5 12.0 5.4 51 4.9 NNW 13 26 7 14 1014.2 1013.9 0.0
28/11:00am 15.4 12.0 5.9 53 4.6 N 13 20 7 11 1014.2 1013.9 0.0
28/10:30am 14.8 10.7 7.8 63 3.5 NW 19 24 10 13 1014.5 1014.2 0.0
28/10:00am 13.1 9.3 7.5 69 2.8 WNW 17 22 9 12 1014.5 1014.2 0.0
28/09:30am 11.9 11.1 8.2 78 1.9 W 2 9 1 5 1014.5 1014.2 0.0
28/09:00am 11.1 11.1 9.9 92 0.6 CALM 0 6 0 3 1014.2 1013.9 2.6
28/08:30am 8.8 8.3 7.9 94 0.4 CALM 0 0 0 0 1014.3 1014.0 2.6
28/08:00am 6.9 6.2 6.9 100 0.0 CALM 0 0 0 0 1014.1 1013.8 2.6
28/07:30am 5.1 4.0 5.1 100 0.0 CALM 0 0 0 0 1013.8 1013.5 2.6
28/07:00am 4.8 3.6 4.8 100 0.0 CALM 0 0 0 0 1013.5 1013.2 2.6
28/06:30am 4.1 2.8 4.1 100 0.0 CALM 0 0 0 0 1013.4 1013.1 2.6
28/06:00am 4.1 2.8 4.1 100 0.0 CALM 0 6 0 3 1013.1 1012.8 2.6
28/05:30am 4.1 2.8 4.1 100 0.0 CALM 0 0 0 0 1012.6 1012.3 2.6
28/05:00am 4.0 1.9 4.0 100 0.0 NE 4 11 2 6 1012.1 1011.7 2.6
28/04:30am 3.7 1.9 3.7 100 0.0 NNE 2 7 1 4 1011.6 1011.3 2.6
28/04:00am 4.4 3.2 4.4 100 0.0 CALM 0 6 0 3 1011.7 1011.4 2.6
28/03:30am 4.7 3.1 4.7 100 0.0 SE 2 7 1 4 1011.6 1011.3 2.6
28/03:00am 5.7 4.3 5.7 100 0.0 WNW 2 6 1 3 1012.2 1011.9 2.6
28/02:30am 5.2 3.0 5.2 100 0.0 SSE 6 9 3 5 1012.3 1012.0 2.6
28/02:00am 5.3 3.1 5.2 99 0.0 NE 6 9 3 5 1012.6 1012.3 2.6
28/01:30am 5.5 3.2 5.5 100 0.0 SSE 7 9 4 5 1012.7 1012.4 2.6
28/01:00am 6.9 6.2 6.8 99 0.0 CALM 0 0 0 0 1013.0 1012.7 2.6
28/12:30am 6.7 4.8 6.6 99 0.0 S 6 9 3 5 1013.3 1013.0 2.6
28/12:00am 8.0 6.2 7.9 99 0.0 SSE 7 9 4 5 1013.3 1013.0 2.6
 
Date/Time
EDT
Temp
°C
App
Temp
°C
Dew
Point
Rel
Hum
%
Delta-T
°C
Wind Press
QNH
hPa
Press
MSL
hPa
Rain
since 9 am
mm
Dir
 
Spd
km/h
Gust
km/h
Spd
kts
Gust
kts
27/11:30pm 7.8 5.9 6.6 92 0.6 SE 6 9 3 5 1013.3 1013.0 2.6

Other Formats:

Comma delimited format used in spreadsheet applications
http://www.bom.gov.au/fwo/IDN60801/IDN60801.94919.axf

JavaScript Object Notation format (JSON) in row-major order
http://www.bom.gov.au/fwo/IDN60801/IDN60801.94919.json